Terminal Aerodrome Forecast
Issued by NWS Sterling, VA

Current Version | Previous Version | Graphics & Text | Print | Product List | Glossary On
Versions: 1 2 3 4 5 6 7 8 9 10 11 12 13 14 15 16 17 18 19 20 21 22 23 24 25 26
000
FTUS41 KLWX 200523
TAFDCA
TAF
KDCA 200523Z 2006/2112 20008KT P6SM OVC005 WS020/23040KT
     FM201200 21007KT P6SM SCT012 OVC080 WS020/24035KT
      TEMPO 2012/2015 BKN012
     FM201500 21008KT P6SM SCT050 BKN150
     FM211100 21007KT P6SM SCT080=

USA.gov is the U.S. government's official web portal to all federal, state and local government web resources and services.